sensor_id;sensor_type;location;lat;lon;timestamp;temperature;humidity
24087;DHT22;22893;50.572;7.234;2023-02-26T00:01:27;21.20;54.20
24087;DHT22;22893;50.572;7.234;2023-02-26T00:03:56;21.20;54.30
24087;DHT22;22893;50.572;7.234;2023-02-26T00:06:25;21.30;54.30
24087;DHT22;22893;50.572;7.234;2023-02-26T00:08:54;21.30;54.20
24087;DHT22;22893;50.572;7.234;2023-02-26T00:11:21;21.20;54.20
24087;DHT22;22893;50.572;7.234;2023-02-26T00:13:50;21.20;54.20
24087;DHT22;22893;50.572;7.234;2023-02-26T00:16:32;21.20;54.10
24087;DHT22;22893;50.572;7.234;2023-02-26T00:19:03;21.20;54.20
24087;DHT22;22893;50.572;7.234;2023-02-26T00:21:32;21.20;53.90
24087;DHT22;22893;50.572;7.234;2023-02-26T00:24:01;21.20;54.20
24087;DHT22;22893;50.572;7.234;2023-02-26T00:26:30;21.20;54.30
24087;DHT22;22893;50.572;7.234;2023-02-26T00:28:58;21.20;53.70
24087;DHT22;22893;50.572;7.234;2023-02-26T00:31:26;21.20;54.00
24087;DHT22;22893;50.572;7.234;2023-02-26T00:33:55;21.20;54.00
24087;DHT22;22893;50.572;7.234;2023-02-26T00:36:40;21.20;53.90
24087;DHT22;22893;50.572;7.234;2023-02-26T00:39:22;21.20;54.00
24087;DHT22;22893;50.572;7.234;2023-02-26T00:41:46;21.20;53.80
24087;DHT22;22893;50.572;7.234;2023-02-26T00:44:14;21.20;54.20
24087;DHT22;22893;50.572;7.234;2023-02-26T00:46:52;21.20;53.60
24087;DHT22;22893;50.572;7.234;2023-02-26T00:51:59;21.10;53.60
24087;DHT22;22893;50.572;7.234;2023-02-26T00:54:29;21.20;53.40
24087;DHT22;22893;50.572;7.234;2023-02-26T00:56:57;21.10;53.90
24087;DHT22;22893;50.572;7.234;2023-02-26T00:59:25;21.20;54.00
24087;DHT22;22893;50.572;7.234;2023-02-26T01:01:53;21.20;53.80
24087;DHT22;22893;50.572;7.234;2023-02-26T01:04:22;21.20;53.70
24087;DHT22;22893;50.572;7.234;2023-02-26T01:06:53;21.20;54.20
24087;DHT22;22893;50.572;7.234;2023-02-26T01:09:34;21.20;53.90
24087;DHT22;22893;50.572;7.234;2023-02-26T01:12:02;21.10;53.70
24087;DHT22;22893;50.572;7.234;2023-02-26T01:14:30;21.10;53.40
24087;DHT22;22893;50.572;7.234;2023-02-26T01:17:07;21.10;53.40
24087;DHT22;22893;50.572;7.234;2023-02-26T01:19:47;21.10;53.10
24087;DHT22;22893;50.572;7.234;2023-02-26T01:25:05;21.10;53.50
24087;DHT22;22893;50.572;7.234;2023-02-26T01:27:29;21.10;53.20
24087;DHT22;22893;50.572;7.234;2023-02-26T01:29:57;21.10;53.20
24087;DHT22;22893;50.572;7.234;2023-02-26T01:32:34;21.10;53.20
24087;DHT22;22893;50.572;7.234;2023-02-26T01:35:16;21.10;53.00
24087;DHT22;22893;50.572;7.234;2023-02-26T01:43:04;21.10;53.10
24087;DHT22;22893;50.572;7.234;2023-02-26T01:45:36;21.00;53.10
24087;DHT22;22893;50.572;7.234;2023-02-26T01:48:16;21.10;53.40
24087;DHT22;22893;50.572;7.234;2023-02-26T01:50:41;21.10;53.00
24087;DHT22;22893;50.572;7.234;2023-02-26T01:53:27;21.00;53.00
24087;DHT22;22893;50.572;7.234;2023-02-26T01:56:03;21.00;52.90
24087;DHT22;22893;50.572;7.234;2023-02-26T01:58:33;21.00;53.00
24087;DHT22;22893;50.572;7.234;2023-02-26T02:01:01;21.00;52.80
24087;DHT22;22893;50.572;7.234;2023-02-26T02:03:31;21.00;52.90
24087;DHT22;22893;50.572;7.234;2023-02-26T02:06:08;21.00;52.70
24087;DHT22;22893;50.572;7.234;2023-02-26T02:08:37;21.00;52.80
24087;DHT22;22893;50.572;7.234;2023-02-26T02:11:07;21.00;52.80
24087;DHT22;22893;50.572;7.234;2023-02-26T02:14:17;21.00;53.00
24087;DHT22;22893;50.572;7.234;2023-02-26T02:25:47;20.90;52.30
24087;DHT22;22893;50.572;7.234;2023-02-26T02:28:34;21.00;52.70
24087;DHT22;22893;50.572;7.234;2023-02-26T02:34:10;20.90;52.40
24087;DHT22;22893;50.572;7.234;2023-02-26T02:36:44;20.90;52.30
24087;DHT22;22893;50.572;7.234;2023-02-26T02:39:24;20.90;52.00
24087;DHT22;22893;50.572;7.234;2023-02-26T02:41:50;20.90;52.00
24087;DHT22;22893;50.572;7.234;2023-02-26T02:44:20;20.90;51.90
24087;DHT22;22893;50.572;7.234;2023-02-26T02:46:50;20.90;52.30
24087;DHT22;22893;50.572;7.234;2023-02-26T02:49:37;20.90;52.30
24087;DHT22;22893;50.572;7.234;2023-02-26T02:52:25;20.90;52.40
24087;DHT22;22893;50.572;7.234;2023-02-26T02:54:56;20.90;52.30
24087;DHT22;22893;50.572;7.234;2023-02-26T02:57:32;20.90;51.90
24087;DHT22;22893;50.572;7.234;2023-02-26T03:00:00;20.90;51.80
24087;DHT22;22893;50.572;7.234;2023-02-26T03:05:21;20.80;52.20
24087;DHT22;22893;50.572;7.234;2023-02-26T03:07:57;20.80;51.50
24087;DHT22;22893;50.572;7.234;2023-02-26T03:10:25;20.80;52.00
24087;DHT22;22893;50.572;7.234;2023-02-26T03:12:53;20.80;51.30
24087;DHT22;22893;50.572;7.234;2023-02-26T03:15:34;20.80;51.60
24087;DHT22;22893;50.572;7.234;2023-02-26T03:18:07;20.80;52.20
24087;DHT22;22893;50.572;7.234;2023-02-26T03:20:38;20.80;52.20
24087;DHT22;22893;50.572;7.234;2023-02-26T03:25:49;20.80;52.30
24087;DHT22;22893;50.572;7.234;2023-02-26T03:28:32;20.80;52.20
24087;DHT22;22893;50.572;7.234;2023-02-26T03:31:15;20.80;52.00
24087;DHT22;22893;50.572;7.234;2023-02-26T03:34:06;20.80;51.20
24087;DHT22;22893;50.572;7.234;2023-02-26T03:36:39;20.70;51.60
24087;DHT22;22893;50.572;7.234;2023-02-26T03:39:10;20.80;51.40
24087;DHT22;22893;50.572;7.234;2023-02-26T03:41:46;20.70;51.60
24087;DHT22;22893;50.572;7.234;2023-02-26T03:44:17;20.70;51.30
24087;DHT22;22893;50.572;7.234;2023-02-26T03:46:51;20.70;51.50
24087;DHT22;22893;50.572;7.234;2023-02-26T03:49:29;20.80;51.80
24087;DHT22;22893;50.572;7.234;2023-02-26T03:51:58;20.80;51.90
24087;DHT22;22893;50.572;7.234;2023-02-26T03:54:30;20.70;51.60
24087;DHT22;22893;50.572;7.234;2023-02-26T03:56:56;20.70;51.50
24087;DHT22;22893;50.572;7.234;2023-02-26T03:59:24;20.80;51.40
24087;DHT22;22893;50.572;7.234;2023-02-26T04:02:04;20.70;51.80
24087;DHT22;22893;50.572;7.234;2023-02-26T04:04:52;20.70;50.70
24087;DHT22;22893;50.572;7.234;2023-02-26T04:07:16;20.70;50.40
24087;DHT22;22893;50.572;7.234;2023-02-26T04:09:46;20.70;51.30
24087;DHT22;22893;50.572;7.234;2023-02-26T04:12:14;20.70;51.60
24087;DHT22;22893;50.572;7.234;2023-02-26T04:14:41;20.70;51.40
24087;DHT22;22893;50.572;7.234;2023-02-26T04:17:09;20.70;51.60
24087;DHT22;22893;50.572;7.234;2023-02-26T04:19:36;20.70;51.30
24087;DHT22;22893;50.572;7.234;2023-02-26T04:22:04;20.70;51.60
24087;DHT22;22893;50.572;7.234;2023-02-26T04:24:32;20.60;48.20
24087;DHT22;22893;50.572;7.234;2023-02-26T04:26:59;20.60;48.50
24087;DHT22;22893;50.572;7.234;2023-02-26T04:29:27;20.50;47.80
24087;DHT22;22893;50.572;7.234;2023-02-26T04:31:54;20.30;46.30
24087;DHT22;22893;50.572;7.234;2023-02-26T04:34:22;20.20;46.80
24087;DHT22;22893;50.572;7.234;2023-02-26T04:36:49;20.30;49.70
24087;DHT22;22893;50.572;7.234;2023-02-26T04:39:18;20.40;50.70
24087;DHT22;22893;50.572;7.234;2023-02-26T04:41:45;20.40;51.00
24087;DHT22;22893;50.572;7.234;2023-02-26T04:44:13;20.50;50.90
24087;DHT22;22893;50.572;7.234;2023-02-26T04:46:40;20.50;50.90
24087;DHT22;22893;50.572;7.234;2023-02-26T04:49:08;20.50;51.00
24087;DHT22;22893;50.572;7.234;2023-02-26T04:51:35;20.50;50.60
24087;DHT22;22893;50.572;7.234;2023-02-26T04:54:03;20.50;50.70
24087;DHT22;22893;50.572;7.234;2023-02-26T04:56:31;20.50;50.50
24087;DHT22;22893;50.572;7.234;2023-02-26T04:58:59;20.50;51.10
24087;DHT22;22893;50.572;7.234;2023-02-26T05:01:26;20.60;51.10
24087;DHT22;22893;50.572;7.234;2023-02-26T05:03:54;20.50;51.80
24087;DHT22;22893;50.572;7.234;2023-02-26T05:06:21;20.60;51.10
24087;DHT22;22893;50.572;7.234;2023-02-26T05:08:49;20.50;50.50
24087;DHT22;22893;50.572;7.234;2023-02-26T05:11:16;20.50;50.70
24087;DHT22;22893;50.572;7.234;2023-02-26T05:13:44;20.60;50.40
24087;DHT22;22893;50.572;7.234;2023-02-26T05:16:12;20.60;50.40
24087;DHT22;22893;50.572;7.234;2023-02-26T05:18:39;20.50;50.00
24087;DHT22;22893;50.572;7.234;2023-02-26T05:21:07;20.50;50.30
24087;DHT22;22893;50.572;7.234;2023-02-26T05:23:35;20.50;50.20
24087;DHT22;22893;50.572;7.234;2023-02-26T05:26:03;20.50;50.50
24087;DHT22;22893;50.572;7.234;2023-02-26T05:28:30;20.50;50.40
24087;DHT22;22893;50.572;7.234;2023-02-26T05:30:59;20.50;50.80
24087;DHT22;22893;50.572;7.234;2023-02-26T05:33:26;20.50;50.40
24087;DHT22;22893;50.572;7.234;2023-02-26T05:35:54;20.50;50.30
24087;DHT22;22893;50.572;7.234;2023-02-26T05:38:23;20.50;50.30
24087;DHT22;22893;50.572;7.234;2023-02-26T05:40:54;20.50;50.70
24087;DHT22;22893;50.572;7.234;2023-02-26T05:43:19;20.50;50.50
24087;DHT22;22893;50.572;7.234;2023-02-26T05:45:49;20.50;50.40
24087;DHT22;22893;50.572;7.234;2023-02-26T05:48:17;20.50;50.00
24087;DHT22;22893;50.572;7.234;2023-02-26T05:50:45;20.50;50.40
24087;DHT22;22893;50.572;7.234;2023-02-26T05:53:13;20.50;50.50
24087;DHT22;22893;50.572;7.234;2023-02-26T05:55:40;20.50;50.10
24087;DHT22;22893;50.572;7.234;2023-02-26T05:58:08;20.50;50.60
24087;DHT22;22893;50.572;7.234;2023-02-26T06:00:36;20.50;50.10
24087;DHT22;22893;50.572;7.234;2023-02-26T06:03:04;20.50;49.60
24087;DHT22;22893;50.572;7.234;2023-02-26T06:05:31;20.40;50.00
24087;DHT22;22893;50.572;7.234;2023-02-26T06:07:59;20.50;49.30
24087;DHT22;22893;50.572;7.234;2023-02-26T06:10:27;20.40;49.20
24087;DHT22;22893;50.572;7.234;2023-02-26T06:12:54;20.40;49.30
24087;DHT22;22893;50.572;7.234;2023-02-26T06:15:22;20.40;49.30
24087;DHT22;22893;50.572;7.234;2023-02-26T06:17:50;20.40;49.30
24087;DHT22;22893;50.572;7.234;2023-02-26T06:20:18;20.50;49.70
24087;DHT22;22893;50.572;7.234;2023-02-26T06:22:45;20.40;50.30
24087;DHT22;22893;50.572;7.234;2023-02-26T06:25:13;20.40;50.30
24087;DHT22;22893;50.572;7.234;2023-02-26T06:27:40;20.40;50.30
24087;DHT22;22893;50.572;7.234;2023-02-26T06:30:09;20.40;50.30
24087;DHT22;22893;50.572;7.234;2023-02-26T06:32:37;20.40;50.90
24087;DHT22;22893;50.572;7.234;2023-02-26T06:35:04;20.50;50.70
24087;DHT22;22893;50.572;7.234;2023-02-26T06:37:32;20.40;50.80
24087;DHT22;22893;50.572;7.234;2023-02-26T06:40:00;20.50;50.80
24087;DHT22;22893;50.572;7.234;2023-02-26T06:42:27;20.50;51.10
24087;DHT22;22893;50.572;7.234;2023-02-26T06:44:55;20.50;50.90
24087;DHT22;22893;50.572;7.234;2023-02-26T06:47:23;20.50;51.00
24087;DHT22;22893;50.572;7.234;2023-02-26T06:49:50;20.50;51.10
24087;DHT22;22893;50.572;7.234;2023-02-26T06:52:18;20.50;51.10
24087;DHT22;22893;50.572;7.234;2023-02-26T06:54:45;20.50;50.80
24087;DHT22;22893;50.572;7.234;2023-02-26T06:57:13;20.50;50.80
24087;DHT22;22893;50.572;7.234;2023-02-26T06:59:40;20.40;49.70
24087;DHT22;22893;50.572;7.234;2023-02-26T07:02:18;20.40;50.60
24087;DHT22;22893;50.572;7.234;2023-02-26T07:04:42;20.50;50.90
24087;DHT22;22893;50.572;7.234;2023-02-26T07:07:10;20.50;50.80
24087;DHT22;22893;50.572;7.234;2023-02-26T07:09:37;20.50;50.80
24087;DHT22;22893;50.572;7.234;2023-02-26T07:12:06;20.50;50.90
24087;DHT22;22893;50.572;7.234;2023-02-26T07:14:34;20.50;50.80
24087;DHT22;22893;50.572;7.234;2023-02-26T07:17:02;20.50;50.90
24087;DHT22;22893;50.572;7.234;2023-02-26T07:19:30;20.50;50.90
24087;DHT22;22893;50.572;7.234;2023-02-26T07:22:01;20.50;51.00
24087;DHT22;22893;50.572;7.234;2023-02-26T07:24:28;20.50;51.70
24087;DHT22;22893;50.572;7.234;2023-02-26T07:26:56;20.50;51.10
24087;DHT22;22893;50.572;7.234;2023-02-26T07:29:23;20.50;51.20
24087;DHT22;22893;50.572;7.234;2023-02-26T07:31:51;20.50;51.10
24087;DHT22;22893;50.572;7.234;2023-02-26T07:34:18;20.50;51.30
24087;DHT22;22893;50.572;7.234;2023-02-26T07:36:46;20.50;51.30
24087;DHT22;22893;50.572;7.234;2023-02-26T07:39:14;20.60;51.50
24087;DHT22;22893;50.572;7.234;2023-02-26T07:41:41;20.60;51.70
24087;DHT22;22893;50.572;7.234;2023-02-26T07:44:09;20.60;51.70
24087;DHT22;22893;50.572;7.234;2023-02-26T07:46:36;20.60;51.70
24087;DHT22;22893;50.572;7.234;2023-02-26T07:49:04;20.60;51.70
24087;DHT22;22893;50.572;7.234;2023-02-26T07:51:32;20.60;52.00
24087;DHT22;22893;50.572;7.234;2023-02-26T07:53:59;20.60;52.10
24087;DHT22;22893;50.572;7.234;2023-02-26T07:56:26;20.60;52.20
24087;DHT22;22893;50.572;7.234;2023-02-26T07:58:54;20.60;52.20
24087;DHT22;22893;50.572;7.234;2023-02-26T08:01:22;20.60;52.20
24087;DHT22;22893;50.572;7.234;2023-02-26T08:03:49;20.60;52.20
24087;DHT22;22893;50.572;7.234;2023-02-26T08:06:17;20.60;52.20
24087;DHT22;22893;50.572;7.234;2023-02-26T08:08:44;20.60;52.30
24087;DHT22;22893;50.572;7.234;2023-02-26T08:11:13;20.60;52.40
24087;DHT22;22893;50.572;7.234;2023-02-26T08:13:40;20.60;52.20
24087;DHT22;22893;50.572;7.234;2023-02-26T08:16:08;20.60;52.20
24087;DHT22;22893;50.572;7.234;2023-02-26T08:18:35;20.60;52.40
24087;DHT22;22893;50.572;7.234;2023-02-26T08:21:04;20.60;52.10
24087;DHT22;22893;50.572;7.234;2023-02-26T08:23:31;20.60;52.00
24087;DHT22;22893;50.572;7.234;2023-02-26T08:26:01;20.70;52.10
24087;DHT22;22893;50.572;7.234;2023-02-26T08:28:29;20.60;52.40
24087;DHT22;22893;50.572;7.234;2023-02-26T08:30:58;20.70;51.70
24087;DHT22;22893;50.572;7.234;2023-02-26T08:33:27;20.70;51.80
24087;DHT22;22893;50.572;7.234;2023-02-26T08:35:55;20.60;51.60
24087;DHT22;22893;50.572;7.234;2023-02-26T08:38:25;20.70;51.80
24087;DHT22;22893;50.572;7.234;2023-02-26T08:40:53;20.60;51.30
24087;DHT22;22893;50.572;7.234;2023-02-26T08:43:22;20.70;51.60
24087;DHT22;22893;50.572;7.234;2023-02-26T08:45:55;20.70;51.90
24087;DHT22;22893;50.572;7.234;2023-02-26T08:48:23;20.70;51.40
24087;DHT22;22893;50.572;7.234;2023-02-26T08:50:51;20.70;51.20
24087;DHT22;22893;50.572;7.234;2023-02-26T08:53:18;20.70;51.00
24087;DHT22;22893;50.572;7.234;2023-02-26T08:55:51;20.70;50.90
24087;DHT22;22893;50.572;7.234;2023-02-26T08:58:19;20.60;50.70
24087;DHT22;22893;50.572;7.234;2023-02-26T09:00:47;20.70;50.90
24087;DHT22;22893;50.572;7.234;2023-02-26T09:03:15;20.60;51.40
24087;DHT22;22893;50.572;7.234;2023-02-26T09:05:42;20.70;52.10
24087;DHT22;22893;50.572;7.234;2023-02-26T09:08:10;20.60;52.20
24087;DHT22;22893;50.572;7.234;2023-02-26T09:10:39;20.70;52.70
24087;DHT22;22893;50.572;7.234;2023-02-26T09:13:07;20.70;53.20
24087;DHT22;22893;50.572;7.234;2023-02-26T09:15:35;20.70;53.40
24087;DHT22;22893;50.572;7.234;2023-02-26T09:18:03;20.70;53.30
24087;DHT22;22893;50.572;7.234;2023-02-26T09:20:31;20.70;53.50
24087;DHT22;22893;50.572;7.234;2023-02-26T09:22:58;20.70;53.70
24087;DHT22;22893;50.572;7.234;2023-02-26T09:25:26;20.70;53.90
24087;DHT22;22893;50.572;7.234;2023-02-26T09:27:53;20.70;53.40
24087;DHT22;22893;50.572;7.234;2023-02-26T09:30:21;20.70;53.80
24087;DHT22;22893;50.572;7.234;2023-02-26T09:32:48;20.70;54.10
24087;DHT22;22893;50.572;7.234;2023-02-26T09:35:16;20.70;54.10
24087;DHT22;22893;50.572;7.234;2023-02-26T09:37:44;20.70;54.40
24087;DHT22;22893;50.572;7.234;2023-02-26T09:40:24;20.70;54.30
24087;DHT22;22893;50.572;7.234;2023-02-26T09:45:29;20.70;54.20
24087;DHT22;22893;50.572;7.234;2023-02-26T09:47:55;20.80;54.20
24087;DHT22;22893;50.572;7.234;2023-02-26T09:55:47;20.80;54.20
24087;DHT22;22893;50.572;7.234;2023-02-26T09:58:29;20.80;54.30
24087;DHT22;22893;50.572;7.234;2023-02-26T10:01:08;20.80;54.10
24087;DHT22;22893;50.572;7.234;2023-02-26T10:06:28;20.80;53.90
24087;DHT22;22893;50.572;7.234;2023-02-26T10:09:11;20.80;53.20
24087;DHT22;22893;50.572;7.234;2023-02-26T10:14:22;20.80;53.20
24087;DHT22;22893;50.572;7.234;2023-02-26T10:16:51;20.70;52.00
24087;DHT22;22893;50.572;7.234;2023-02-26T10:19:22;20.70;52.20
24087;DHT22;22893;50.572;7.234;2023-02-26T10:22:00;20.70;52.10
24087;DHT22;22893;50.572;7.234;2023-02-26T10:24:32;20.70;50.70
24087;DHT22;22893;50.572;7.234;2023-02-26T10:27:05;20.70;49.70
24087;DHT22;22893;50.572;7.234;2023-02-26T10:32:32;20.70;52.50
24087;DHT22;22893;50.572;7.234;2023-02-26T10:35:05;20.70;52.90
24087;DHT22;22893;50.572;7.234;2023-02-26T10:48:42;20.60;52.90
24087;DHT22;22893;50.572;7.234;2023-02-26T10:51:19;20.70;53.10
24087;DHT22;22893;50.572;7.234;2023-02-26T10:53:46;20.70;53.30
24087;DHT22;22893;50.572;7.234;2023-02-26T10:56:25;20.70;53.50
24087;DHT22;22893;50.572;7.234;2023-02-26T10:58:53;20.80;53.60
24087;DHT22;22893;50.572;7.234;2023-02-26T11:01:23;20.80;53.80
24087;DHT22;22893;50.572;7.234;2023-02-26T11:03:59;20.80;53.80
24087;DHT22;22893;50.572;7.234;2023-02-26T11:06:27;20.80;53.70
24087;DHT22;22893;50.572;7.234;2023-02-26T11:08:57;20.80;54.00
24087;DHT22;22893;50.572;7.234;2023-02-26T16:02:32;20.90;53.30
24087;DHT22;22893;50.572;7.234;2023-02-26T16:05:01;20.90;53.40
24087;DHT22;22893;50.572;7.234;2023-02-26T16:07:28;20.90;53.50
24087;DHT22;22893;50.572;7.234;2023-02-26T16:09:56;21.00;53.60
24087;DHT22;22893;50.572;7.234;2023-02-26T16:12:33;21.00;52.80
24087;DHT22;22893;50.572;7.234;2023-02-26T16:14:58;21.00;53.50
24087;DHT22;22893;50.572;7.234;2023-02-26T16:17:32;20.90;52.70
24087;DHT22;22893;50.572;7.234;2023-02-26T16:20:10;21.00;51.90
24087;DHT22;22893;50.572;7.234;2023-02-26T16:22:38;20.90;52.80
24087;DHT22;22893;50.572;7.234;2023-02-26T16:25:11;21.00;53.00
24087;DHT22;22893;50.572;7.234;2023-02-26T16:27:36;20.90;51.40
24087;DHT22;22893;50.572;7.234;2023-02-26T16:30:04;20.90;52.30
24087;DHT22;22893;50.572;7.234;2023-02-26T16:32:34;21.00;52.80
24087;DHT22;22893;50.572;7.234;2023-02-26T16:35:08;21.00;50.60
24087;DHT22;22893;50.572;7.234;2023-02-26T16:37:35;20.90;52.60
24087;DHT22;22893;50.572;7.234;2023-02-26T16:40:19;21.00;52.90
24087;DHT22;22893;50.572;7.234;2023-02-26T16:48:17;21.00;52.50
24087;DHT22;22893;50.572;7.234;2023-02-26T16:50:48;21.00;52.40
24087;DHT22;22893;50.572;7.234;2023-02-26T16:53:19;21.00;52.30
24087;DHT22;22893;50.572;7.234;2023-02-26T16:55:52;21.00;51.90
24087;DHT22;22893;50.572;7.234;2023-02-26T16:58:21;21.00;51.30
24087;DHT22;22893;50.572;7.234;2023-02-26T17:00:53;20.90;51.20
24087;DHT22;22893;50.572;7.234;2023-02-26T17:03:23;21.00;51.50
24087;DHT22;22893;50.572;7.234;2023-02-26T17:06:00;20.90;51.40
24087;DHT22;22893;50.572;7.234;2023-02-26T17:08:34;21.00;51.10
24087;DHT22;22893;50.572;7.234;2023-02-26T17:11:17;20.90;51.50
24087;DHT22;22893;50.572;7.234;2023-02-26T17:13:40;20.90;51.50
24087;DHT22;22893;50.572;7.234;2023-02-26T17:16:11;21.00;51.60
24087;DHT22;22893;50.572;7.234;2023-02-26T17:18:39;21.00;51.70
24087;DHT22;22893;50.572;7.234;2023-02-26T17:21:08;21.00;51.60
24087;DHT22;22893;50.572;7.234;2023-02-26T17:23:37;21.00;51.80
24087;DHT22;22893;50.572;7.234;2023-02-26T17:26:04;21.00;51.70
24087;DHT22;22893;50.572;7.234;2023-02-26T17:28:35;21.00;51.80
24087;DHT22;22893;50.572;7.234;2023-02-26T17:31:05;21.00;51.80
24087;DHT22;22893;50.572;7.234;2023-02-26T17:33:33;21.00;51.80
24087;DHT22;22893;50.572;7.234;2023-02-26T17:36:03;21.00;51.60
24087;DHT22;22893;50.572;7.234;2023-02-26T17:38:31;21.00;51.60
24087;DHT22;22893;50.572;7.234;2023-02-26T17:40:59;21.00;51.80
24087;DHT22;22893;50.572;7.234;2023-02-26T17:43:27;21.00;51.60
24087;DHT22;22893;50.572;7.234;2023-02-26T17:45:55;21.00;51.00
24087;DHT22;22893;50.572;7.234;2023-02-26T17:48:22;21.00;51.20
24087;DHT22;22893;50.572;7.234;2023-02-26T17:50:53;21.00;51.30
24087;DHT22;22893;50.572;7.234;2023-02-26T17:53:24;21.00;51.00
24087;DHT22;22893;50.572;7.234;2023-02-26T17:55:57;21.00;51.20
24087;DHT22;22893;50.572;7.234;2023-02-26T17:58:31;21.00;51.10
24087;DHT22;22893;50.572;7.234;2023-02-26T18:01:00;21.00;51.40
24087;DHT22;22893;50.572;7.234;2023-02-26T18:03:29;21.00;51.60
24087;DHT22;22893;50.572;7.234;2023-02-26T18:05:57;21.00;51.90
24087;DHT22;22893;50.572;7.234;2023-02-26T18:08:30;21.00;52.20
24087;DHT22;22893;50.572;7.234;2023-02-26T18:10:59;21.00;52.40
24087;DHT22;22893;50.572;7.234;2023-02-26T21:51:49;21.00;52.50
24087;DHT22;22893;50.572;7.234;2023-02-26T21:54:16;21.00;52.40
24087;DHT22;22893;50.572;7.234;2023-02-26T21:56:44;21.00;52.30
24087;DHT22;22893;50.572;7.234;2023-02-26T21:59:12;20.90;52.20
24087;DHT22;22893;50.572;7.234;2023-02-26T22:01:39;21.00;52.20
24087;DHT22;22893;50.572;7.234;2023-02-26T22:04:07;21.00;52.30
24087;DHT22;22893;50.572;7.234;2023-02-26T22:06:34;21.00;52.40
24087;DHT22;22893;50.572;7.234;2023-02-26T22:09:03;21.00;52.30
24087;DHT22;22893;50.572;7.234;2023-02-26T22:11:30;21.00;52.90
24087;DHT22;22893;50.572;7.234;2023-02-26T22:13:58;21.00;52.10
24087;DHT22;22893;50.572;7.234;2023-02-26T22:16:26;21.00;52.20
24087;DHT22;22893;50.572;7.234;2023-02-26T22:18:53;21.00;52.00
24087;DHT22;22893;50.572;7.234;2023-02-26T22:21:21;21.00;52.00
24087;DHT22;22893;50.572;7.234;2023-02-26T22:23:51;21.00;52.10
24087;DHT22;22893;50.572;7.234;2023-02-26T22:26:19;21.00;52.00
24087;DHT22;22893;50.572;7.234;2023-02-26T22:28:46;21.00;52.10
24087;DHT22;22893;50.572;7.234;2023-02-26T22:31:14;21.00;52.20
24087;DHT22;22893;50.572;7.234;2023-02-26T22:33:42;21.00;52.20
24087;DHT22;22893;50.572;7.234;2023-02-26T22:36:09;21.00;52.20
24087;DHT22;22893;50.572;7.234;2023-02-26T22:38:37;21.00;52.30
24087;DHT22;22893;50.572;7.234;2023-02-26T22:41:04;21.00;52.20
24087;DHT22;22893;50.572;7.234;2023-02-26T22:43:32;21.00;52.20
24087;DHT22;22893;50.572;7.234;2023-02-26T22:46:00;21.00;52.20
24087;DHT22;22893;50.572;7.234;2023-02-26T22:48:27;20.90;52.10
24087;DHT22;22893;50.572;7.234;2023-02-26T22:50:55;21.00;52.20
24087;DHT22;22893;50.572;7.234;2023-02-26T22:53:23;21.00;52.20
24087;DHT22;22893;50.572;7.234;2023-02-26T22:55:55;20.90;52.20
24087;DHT22;22893;50.572;7.234;2023-02-26T22:58:23;21.00;51.50
24087;DHT22;22893;50.572;7.234;2023-02-26T23:00:59;21.00;52.00
24087;DHT22;22893;50.572;7.234;2023-02-26T23:03:28;21.00;52.00
24087;DHT22;22893;50.572;7.234;2023-02-26T23:05:56;20.90;48.80
24087;DHT22;22893;50.572;7.234;2023-02-26T23:08:24;20.90;51.30
24087;DHT22;22893;50.572;7.234;2023-02-26T23:10:59;20.90;51.80
24087;DHT22;22893;50.572;7.234;2023-02-26T23:13:29;20.90;51.80
24087;DHT22;22893;50.572;7.234;2023-02-26T23:16:00;20.80;52.10
24087;DHT22;22893;50.572;7.234;2023-02-26T23:18:28;20.70;52.90
24087;DHT22;22893;50.572;7.234;2023-02-26T23:20:57;20.70;52.10
24087;DHT22;22893;50.572;7.234;2023-02-26T23:23:25;20.70;52.20
24087;DHT22;22893;50.572;7.234;2023-02-26T23:25:52;20.70;52.20
24087;DHT22;22893;50.572;7.234;2023-02-26T23:28:20;20.60;52.20
24087;DHT22;22893;50.572;7.234;2023-02-26T23:30:47;20.60;52.30
24087;DHT22;22893;50.572;7.234;2023-02-26T23:33:15;20.60;52.40
24087;DHT22;22893;50.572;7.234;2023-02-26T23:35:43;20.60;52.40
24087;DHT22;22893;50.572;7.234;2023-02-26T23:38:10;20.60;52.40
24087;DHT22;22893;50.572;7.234;2023-02-26T23:40:38;20.60;52.40
24087;DHT22;22893;50.572;7.234;2023-02-26T23:43:05;20.50;52.40
24087;DHT22;22893;50.572;7.234;2023-02-26T23:45:33;20.50;52.40
24087;DHT22;22893;50.572;7.234;2023-02-26T23:48:01;20.50;52.50
24087;DHT22;22893;50.572;7.234;2023-02-26T23:50:28;20.50;52.50
24087;DHT22;22893;50.572;7.234;2023-02-26T23:52:56;20.50;52.50
24087;DHT22;22893;50.572;7.234;2023-02-26T23:55:23;20.40;52.50
24087;DHT22;22893;50.572;7.234;2023-02-26T23:57:51;20.40;52.40
